RPC1404 RPLL-RPLL
Flight info
| Callsign | RPC1404 |
|---|---|
| Flight time | 0h 53m |
| Altitude | 1500 |
| Route | RPLL RPLL |
| Aircraft | C172/M-SDE3FGHIRWY/LB1 |
Departure
| Time | 2026-05-07 14:22 |
|---|---|
| Airport | Ninoy Aquino International Airport (RPLL) |
Arrival
| Time | 2026-05-07 15:15 |
|---|---|
| Airport | Ninoy Aquino International Airport (RPLL) |
| Time | Latitude | Longitude | Altitude | Speed | Heading |
|---|---|---|---|---|---|
| 2026-05-07 14:13 | 14.51802 | 121.00603 | 77 ft | 0 kts | 334° |
| 2026-05-07 14:19 | 14.51803 | 121.00602 | 77 ft | 1 kts | 334° |
| 2026-05-07 14:19 | 14.51842 | 121.00599 | 77 ft | 9 kts | 358° |
| 2026-05-07 14:20 | 14.51929 | 121.00603 | 77 ft | 15 kts | 7° |
| 2026-05-07 14:20 | 14.52029 | 121.00622 | 77 ft | 6 kts | 9° |
| 2026-05-07 14:20 | 14.52085 | 121.00633 | 77 ft | 11 kts | 8° |
| 2026-05-07 14:20 | 14.52118 | 121.00659 | 77 ft | 2 kts | 136° |
| 2026-05-07 14:21 | 14.52117 | 121.00659 | 77 ft | 0 kts | 136° |
| 2026-05-07 14:21 | 14.51997 | 121.00783 | 77 ft | 49 kts | 131° |
| 2026-05-07 14:21 | 14.51683 | 121.01098 | 155 ft | 69 kts | 129° |
| 2026-05-07 14:21 | 14.51313 | 121.01469 | 272 ft | 77 kts | 132° |
| 2026-05-07 14:22 | 14.50910 | 121.01837 | 430 ft | 78 kts | 129° |
| 2026-05-07 14:22 | 14.50561 | 121.02242 | 611 ft | 75 kts | 122° |
| 2026-05-07 14:22 | 14.50178 | 121.02638 | 745 ft | 81 kts | 141° |
| 2026-05-07 14:22 | 14.49612 | 121.02680 | 856 ft | 93 kts | 200° |
| 2026-05-07 14:23 | 14.49167 | 121.02127 | 957 ft | 102 kts | 238° |
| 2026-05-07 14:23 | 14.48785 | 121.01472 | 1020 ft | 108 kts | 236° |
| 2026-05-07 14:23 | 14.48395 | 121.00822 | 1045 ft | 103 kts | 238° |
| 2026-05-07 14:23 | 14.48063 | 121.00174 | 1007 ft | 100 kts | 243° |
| 2026-05-07 14:24 | 14.47776 | 120.99536 | 954 ft | 98 kts | 252° |
| 2026-05-07 14:24 | 14.47855 | 120.98848 | 809 ft | 102 kts | 312° |
| 2026-05-07 14:24 | 14.48427 | 120.98510 | 664 ft | 94 kts | 350° |
| 2026-05-07 14:24 | 14.49024 | 120.98554 | 497 ft | 82 kts | 55° |
| 2026-05-07 14:25 | 14.49287 | 120.99073 | 335 ft | 82 kts | 70° |
| 2026-05-07 14:25 | 14.49554 | 120.99596 | 234 ft | 80 kts | 60° |
| 2026-05-07 14:25 | 14.49830 | 121.00099 | 101 ft | 81 kts | 64° |
| 2026-05-07 14:25 | 14.50072 | 121.00530 | 77 ft | 56 kts | 63° |
| 2026-05-07 14:26 | 14.50304 | 121.00938 | 139 ft | 72 kts | 66° |
| 2026-05-07 14:26 | 14.50538 | 121.01403 | 275 ft | 77 kts | 66° |
| 2026-05-07 14:26 | 14.50808 | 121.01856 | 461 ft | 69 kts | 64° |
| 2026-05-07 14:26 | 14.51030 | 121.02293 | 543 ft | 68 kts | 67° |
| 2026-05-07 14:27 | 14.51176 | 121.02741 | 615 ft | 66 kts | 102° |
| 2026-05-07 14:27 | 14.50899 | 121.03102 | 665 ft | 71 kts | 153° |
| 2026-05-07 14:27 | 14.50386 | 121.03071 | 703 ft | 82 kts | 207° |
| 2026-05-07 14:27 | 14.50031 | 121.02595 | 762 ft | 85 kts | 246° |
| 2026-05-07 14:28 | 14.49770 | 121.02036 | 804 ft | 87 kts | 241° |
| 2026-05-07 14:28 | 14.49473 | 121.01459 | 842 ft | 90 kts | 244° |
| 2026-05-07 14:28 | 14.49062 | 121.00987 | 877 ft | 88 kts | 208° |
| 2026-05-07 14:28 | 14.48480 | 121.00908 | 917 ft | 80 kts | 152° |
| 2026-05-07 14:29 | 14.48213 | 121.01327 | 980 ft | 73 kts | 88° |
| 2026-05-07 14:29 | 14.48558 | 121.01713 | 994 ft | 83 kts | 18° |
| 2026-05-07 14:29 | 14.49157 | 121.01547 | 943 ft | 100 kts | 323° |
| 2026-05-07 14:29 | 14.49195 | 121.00859 | 931 ft | 103 kts | 236° |
| 2026-05-07 14:30 | 14.48652 | 121.00629 | 978 ft | 80 kts | 158° |
| 2026-05-07 14:30 | 14.48299 | 121.01048 | 927 ft | 77 kts | 100° |
| 2026-05-07 14:30 | 14.48470 | 121.01530 | 944 ft | 77 kts | 47° |
| 2026-05-07 14:30 | 14.49029 | 121.01639 | 869 ft | 93 kts | 348° |
| 2026-05-07 14:31 | 14.49370 | 121.01102 | 855 ft | 95 kts | 262° |
| 2026-05-07 14:31 | 14.48954 | 121.00662 | 756 ft | 86 kts | 176° |
| 2026-05-07 14:31 | 14.48517 | 121.00958 | 705 ft | 76 kts | 104° |
| 2026-05-07 14:31 | 14.48641 | 121.01476 | 632 ft | 79 kts | 42° |
| 2026-05-07 14:32 | 14.49154 | 121.01483 | 616 ft | 88 kts | 325° |
| 2026-05-07 14:32 | 14.49182 | 121.00867 | 599 ft | 94 kts | 230° |
| 2026-05-07 14:32 | 14.48622 | 121.00744 | 617 ft | 82 kts | 138° |
| 2026-05-07 14:32 | 14.48575 | 121.01197 | 673 ft | 77 kts | 39° |
| 2026-05-07 14:33 | 14.49099 | 121.01061 | 655 ft | 96 kts | 301° |
| 2026-05-07 14:33 | 14.49034 | 121.00422 | 719 ft | 93 kts | 237° |
| 2026-05-07 14:33 | 14.48820 | 120.99773 | 772 ft | 97 kts | 276° |
| 2026-05-07 14:33 | 14.49192 | 120.99232 | 795 ft | 95 kts | 328° |
| 2026-05-07 14:34 | 14.49761 | 120.98880 | 786 ft | 96 kts | 338° |
| 2026-05-07 14:34 | 14.50372 | 120.98605 | 784 ft | 93 kts | 344° |
| 2026-05-07 14:34 | 14.50986 | 120.98415 | 765 ft | 91 kts | 348° |
| 2026-05-07 14:34 | 14.51599 | 120.98357 | 806 ft | 85 kts | 5° |
| 2026-05-07 14:35 | 14.52195 | 120.98361 | 820 ft | 85 kts | 6° |
| 2026-05-07 14:35 | 14.52776 | 120.98347 | 867 ft | 83 kts | 3° |
| 2026-05-07 14:35 | 14.53356 | 120.98359 | 906 ft | 81 kts | 7° |
| 2026-05-07 14:35 | 14.53930 | 120.98378 | 938 ft | 84 kts | 6° |
| 2026-05-07 14:36 | 14.54510 | 120.98367 | 1013 ft | 81 kts | 3° |
| 2026-05-07 14:36 | 14.55059 | 120.98229 | 1073 ft | 84 kts | 335° |
| 2026-05-07 14:36 | 14.55493 | 120.97798 | 1115 ft | 88 kts | 315° |
| 2026-05-07 14:36 | 14.55918 | 120.97316 | 1156 ft | 90 kts | 316° |
| 2026-05-07 14:37 | 14.56298 | 120.96828 | 1210 ft | 90 kts | 310° |
| 2026-05-07 14:37 | 14.57066 | 120.95840 | 1352 ft | 84 kts | 313° |
| 2026-05-07 14:37 | 14.57416 | 120.95332 | 1359 ft | 89 kts | 311° |
| 2026-05-07 14:38 | 14.57761 | 120.94827 | 1433 ft | 87 kts | 311° |
| 2026-05-07 14:38 | 14.58115 | 120.94277 | 1459 ft | 90 kts | 302° |
| 2026-05-07 14:38 | 14.58485 | 120.93800 | 1480 ft | 87 kts | 337° |
| 2026-05-07 14:38 | 14.59038 | 120.93620 | 1527 ft | 81 kts | 352° |
| 2026-05-07 14:39 | 14.59618 | 120.93481 | 1509 ft | 88 kts | 354° |
| 2026-05-07 14:39 | 14.60208 | 120.93347 | 1570 ft | 84 kts | 354° |
| 2026-05-07 14:39 | 14.60815 | 120.93217 | 1549 ft | 88 kts | 1° |
| 2026-05-07 14:39 | 14.61405 | 120.93295 | 1568 ft | 83 kts | 20° |
| 2026-05-07 14:40 | 14.61971 | 120.93465 | 1537 ft | 86 kts | 22° |
| 2026-05-07 14:40 | 14.62557 | 120.93613 | 1491 ft | 84 kts | 20° |
| 2026-05-07 14:40 | 14.63108 | 120.93783 | 1434 ft | 83 kts | 25° |
| 2026-05-07 14:40 | 14.63664 | 120.93955 | 1394 ft | 81 kts | 22° |
| 2026-05-07 14:41 | 14.64221 | 120.94129 | 1337 ft | 85 kts | 21° |
| 2026-05-07 14:41 | 14.64785 | 120.94285 | 1323 ft | 83 kts | 21° |
| 2026-05-07 14:41 | 14.65325 | 120.94486 | 1304 ft | 81 kts | 31° |
| 2026-05-07 14:41 | 14.65838 | 120.94765 | 1274 ft | 82 kts | 31° |
| 2026-05-07 14:42 | 14.66346 | 120.95046 | 1245 ft | 83 kts | 35° |
| 2026-05-07 14:42 | 14.66901 | 120.95213 | 1238 ft | 87 kts | 2° |
| 2026-05-07 14:42 | 14.67369 | 120.94835 | 1246 ft | 95 kts | 293° |
| 2026-05-07 14:42 | 14.67237 | 120.94190 | 1244 ft | 95 kts | 218° |
| 2026-05-07 14:43 | 14.66633 | 120.94026 | 1272 ft | 86 kts | 154° |
| 2026-05-07 14:43 | 14.66297 | 120.94447 | 1291 ft | 76 kts | 89° |
| 2026-05-07 14:43 | 14.66448 | 120.94973 | 1289 ft | 75 kts | 65° |
| 2026-05-07 14:43 | 14.66602 | 120.95470 | 1328 ft | 72 kts | 98° |
| 2026-05-07 14:44 | 14.66159 | 120.95682 | 1313 ft | 88 kts | 190° |
| 2026-05-07 14:44 | 14.65737 | 120.95194 | 1262 ft | 98 kts | 258° |
| 2026-05-07 14:44 | 14.65939 | 120.94585 | 1270 ft | 89 kts | 324° |
| 2026-05-07 14:44 | 14.66485 | 120.94484 | 1205 ft | 82 kts | 29° |
| 2026-05-07 14:45 | 14.66923 | 120.94880 | 1153 ft | 79 kts | 74° |
| 2026-05-07 14:45 | 14.66555 | 120.95161 | 1112 ft | 94 kts | 203° |
| 2026-05-07 14:45 | 14.66459 | 120.94576 | 1097 ft | 91 kts | 323° |
| 2026-05-07 14:45 | 14.66985 | 120.94615 | 1083 ft | 80 kts | 55° |
| 2026-05-07 14:46 | 14.66955 | 120.95135 | 1056 ft | 88 kts | 143° |
| 2026-05-07 14:46 | 14.66443 | 120.94901 | 1003 ft | 99 kts | 283° |
| 2026-05-07 14:46 | 14.66886 | 120.94484 | 998 ft | 96 kts | 300° |
| 2026-05-07 14:46 | 14.66611 | 120.93905 | 966 ft | 101 kts | 195° |
| 2026-05-07 14:47 | 14.66128 | 120.94192 | 1002 ft | 85 kts | 98° |
| 2026-05-07 14:47 | 14.66314 | 120.94743 | 1055 ft | 81 kts | 57° |
| 2026-05-07 14:47 | 14.66865 | 120.95001 | 891 ft | 108 kts | 346° |
| 2026-05-07 14:47 | 14.66889 | 120.94422 | 884 ft | 100 kts | 194° |
| 2026-05-07 14:48 | 14.66573 | 120.94750 | 967 ft | 74 kts | 75° |
| 2026-05-07 14:48 | 14.66993 | 120.95081 | 872 ft | 99 kts | 345° |
| 2026-05-07 14:48 | 14.67055 | 120.94492 | 1064 ft | 95 kts | 214° |
| 2026-05-07 14:48 | 14.66559 | 120.94572 | 1150 ft | 75 kts | 107° |
| 2026-05-07 14:49 | 14.66857 | 120.94920 | 951 ft | 105 kts | 313° |
| 2026-05-07 14:49 | 14.66618 | 120.94373 | 1030 ft | 87 kts | 189° |
| 2026-05-07 14:49 | 14.66212 | 120.94608 | 1003 ft | 73 kts | 98° |
| 2026-05-07 14:49 | 14.66485 | 120.95075 | 922 ft | 86 kts | 18° |
| 2026-05-07 14:50 | 14.66935 | 120.94704 | 866 ft | 103 kts | 265° |
| 2026-05-07 14:50 | 14.66644 | 120.94116 | 943 ft | 93 kts | 236° |
| 2026-05-07 14:50 | 14.66135 | 120.93796 | 954 ft | 84 kts | 170° |
| 2026-05-07 14:50 | 14.65711 | 120.94128 | 902 ft | 82 kts | 103° |
| 2026-05-07 14:51 | 14.65892 | 120.94657 | 902 ft | 81 kts | 52° |
| 2026-05-07 14:51 | 14.66235 | 120.95128 | 903 ft | 82 kts | 58° |
| 2026-05-07 14:51 | 14.66590 | 120.95526 | 992 ft | 74 kts | 26° |
| 2026-05-07 14:51 | 14.67102 | 120.95378 | 1006 ft | 86 kts | 311° |
| 2026-05-07 14:52 | 14.67135 | 120.94747 | 982 ft | 93 kts | 238° |
| 2026-05-07 14:52 | 14.66756 | 120.94196 | 1000 ft | 91 kts | 223° |
| 2026-05-07 14:52 | 14.66188 | 120.94024 | 976 ft | 84 kts | 155° |
| 2026-05-07 14:52 | 14.65853 | 120.94421 | 1015 ft | 73 kts | 98° |
| 2026-05-07 14:53 | 14.66023 | 120.94926 | 1006 ft | 78 kts | 50° |
| 2026-05-07 14:53 | 14.66444 | 120.95261 | 1092 ft | 77 kts | 35° |
| 2026-05-07 14:53 | 14.66779 | 120.95615 | 1165 ft | 71 kts | 89° |
| 2026-05-07 14:53 | 14.66343 | 120.95771 | 1052 ft | 104 kts | 225° |
| 2026-05-07 14:54 | 14.66519 | 120.95210 | 1033 ft | 88 kts | 339° |
| 2026-05-07 14:54 | 14.67029 | 120.94888 | 1049 ft | 83 kts | 319° |
| 2026-05-07 14:54 | 14.67142 | 120.94336 | 984 ft | 87 kts | 216° |
| 2026-05-07 14:54 | 14.66729 | 120.94469 | 941 ft | 68 kts | 100° |
| 2026-05-07 14:55 | 14.66696 | 120.94981 | 832 ft | 79 kts | 69° |
| 2026-05-07 14:55 | 14.67150 | 120.95098 | 888 ft | 82 kts | 317° |
| 2026-05-07 14:55 | 14.66906 | 120.94778 | 862 ft | 83 kts | 141° |
| 2026-05-07 14:55 | 14.66393 | 120.94910 | 864 ft | 97 kts | 240° |
| 2026-05-07 14:56 | 14.66711 | 120.94614 | 872 ft | 64 kts | 39° |
| 2026-05-07 14:56 | 14.66641 | 120.95031 | 857 ft | 79 kts | 140° |
| 2026-05-07 14:56 | 14.66580 | 120.95439 | 937 ft | 72 kts | 26° |
| 2026-05-07 14:56 | 14.67056 | 120.95280 | 962 ft | 78 kts | 333° |
| 2026-05-07 14:57 | 14.67482 | 120.94881 | 997 ft | 88 kts | 289° |
| 2026-05-07 14:57 | 14.67182 | 120.94411 | 981 ft | 92 kts | 166° |
| 2026-05-07 14:57 | 14.66811 | 120.94856 | 971 ft | 88 kts | 123° |
| 2026-05-07 14:57 | 14.66417 | 120.94637 | 941 ft | 94 kts | 281° |
| 2026-05-07 14:58 | 14.66741 | 120.94107 | 906 ft | 88 kts | 315° |
| 2026-05-07 14:58 | 14.67110 | 120.93681 | 942 ft | 76 kts | 338° |
| 2026-05-07 14:58 | 14.67523 | 120.93805 | 918 ft | 63 kts | 63° |
| 2026-05-07 14:58 | 14.67430 | 120.94240 | 844 ft | 71 kts | 129° |
| 2026-05-07 14:59 | 14.67044 | 120.94593 | 834 ft | 70 kts | 132° |
| 2026-05-07 14:59 | 14.66747 | 120.94932 | 1069 ft | 54 kts | 103° |
| 2026-05-07 14:59 | 14.67041 | 120.95116 | 889 ft | 96 kts | 340° |
| 2026-05-07 14:59 | 14.67128 | 120.94530 | 915 ft | 98 kts | 209° |
| 2026-05-07 15:00 | 14.66649 | 120.94669 | 1043 ft | 70 kts | 110° |
| 2026-05-07 15:00 | 14.66728 | 120.95116 | 1064 ft | 73 kts | 36° |
| 2026-05-07 15:00 | 14.67252 | 120.94970 | 1074 ft | 87 kts | 327° |
| 2026-05-07 15:00 | 14.67666 | 120.94528 | 1144 ft | 86 kts | 312° |
| 2026-05-07 15:01 | 14.67895 | 120.93937 | 1159 ft | 93 kts | 262° |
| 2026-05-07 15:01 | 14.67438 | 120.93587 | 1125 ft | 90 kts | 154° |
| 2026-05-07 15:01 | 14.67102 | 120.94115 | 1039 ft | 89 kts | 111° |
| 2026-05-07 15:01 | 14.66813 | 120.94639 | 1035 ft | 81 kts | 120° |
| 2026-05-07 15:02 | 14.66561 | 120.95136 | 983 ft | 74 kts | 84° |
| 2026-05-07 15:02 | 14.66896 | 120.95528 | 918 ft | 78 kts | 19° |
| 2026-05-07 15:02 | 14.67400 | 120.95370 | 922 ft | 80 kts | 317° |
| 2026-05-07 15:02 | 14.67639 | 120.94820 | 863 ft | 86 kts | 268° |
| 2026-05-07 15:03 | 14.67351 | 120.94344 | 920 ft | 79 kts | 201° |
| 2026-05-07 15:03 | 14.66835 | 120.94318 | 963 ft | 74 kts | 146° |
| 2026-05-07 15:03 | 14.66532 | 120.94712 | 1006 ft | 68 kts | 88° |
| 2026-05-07 15:03 | 14.66791 | 120.95142 | 984 ft | 80 kts | 27° |
| 2026-05-07 15:04 | 14.67292 | 120.94923 | 978 ft | 96 kts | 294° |
| 2026-05-07 15:04 | 14.66991 | 120.94424 | 1043 ft | 87 kts | 191° |
| 2026-05-07 15:04 | 14.66396 | 120.94396 | 1047 ft | 86 kts | 160° |
| 2026-05-07 15:04 | 14.66225 | 120.94825 | 1127 ft | 71 kts | 69° |
| 2026-05-07 15:05 | 14.66594 | 120.95152 | 1082 ft | 80 kts | 19° |
| 2026-05-07 15:05 | 14.67108 | 120.95023 | 1146 ft | 79 kts | 327° |
| 2026-05-07 15:05 | 14.67530 | 120.94646 | 1189 ft | 84 kts | 311° |
| 2026-05-07 15:05 | 14.67659 | 120.94069 | 1272 ft | 85 kts | 258° |
| 2026-05-07 15:06 | 14.67258 | 120.93605 | 1273 ft | 87 kts | 187° |
| 2026-05-07 15:06 | 14.66820 | 120.93825 | 1330 ft | 73 kts | 107° |
| 2026-05-07 15:06 | 14.66741 | 120.94394 | 1261 ft | 84 kts | 91° |
| 2026-05-07 15:06 | 14.66741 | 120.94988 | 1294 ft | 80 kts | 67° |
| 2026-05-07 15:07 | 14.67170 | 120.95217 | 1336 ft | 80 kts | 353° |
| 2026-05-07 15:07 | 14.67531 | 120.94788 | 1322 ft | 94 kts | 262° |
| 2026-05-07 15:07 | 14.67108 | 120.94301 | 1313 ft | 90 kts | 192° |
| 2026-05-07 15:07 | 14.66489 | 120.94207 | 1289 ft | 90 kts | 178° |
| 2026-05-07 15:08 | 14.65871 | 120.94190 | 1300 ft | 88 kts | 173° |
| 2026-05-07 15:08 | 14.65220 | 120.94154 | 1207 ft | 98 kts | 177° |
| 2026-05-07 15:08 | 14.64539 | 120.94097 | 1168 ft | 94 kts | 176° |
| 2026-05-07 15:08 | 14.63915 | 120.94058 | 1156 ft | 83 kts | 179° |
| 2026-05-07 15:09 | 14.63362 | 120.94011 | 1156 ft | 76 kts | 175° |
| 2026-05-07 15:09 | 14.62834 | 120.93973 | 1140 ft | 73 kts | 175° |
| 2026-05-07 15:09 | 14.62319 | 120.93947 | 1071 ft | 79 kts | 174° |
| 2026-05-07 15:09 | 14.61782 | 120.93913 | 1053 ft | 76 kts | 171° |
| 2026-05-07 15:10 | 14.61263 | 120.93943 | 1051 ft | 72 kts | 161° |
| 2026-05-07 15:10 | 14.60765 | 120.94027 | 1031 ft | 72 kts | 161° |
| 2026-05-07 15:10 | 14.60255 | 120.94146 | 1017 ft | 72 kts | 154° |
| 2026-05-07 15:10 | 14.59758 | 120.94353 | 963 ft | 77 kts | 148° |
| 2026-05-07 15:11 | 14.59257 | 120.94582 | 953 ft | 79 kts | 152° |
| 2026-05-07 15:11 | 14.58738 | 120.94775 | 983 ft | 77 kts | 145° |
| 2026-05-07 15:11 | 14.58257 | 120.95026 | 1018 ft | 77 kts | 143° |
| 2026-05-07 15:11 | 14.57794 | 120.95325 | 1001 ft | 83 kts | 140° |
| 2026-05-07 15:12 | 14.57323 | 120.95615 | 1088 ft | 75 kts | 144° |
| 2026-05-07 15:12 | 14.56849 | 120.95911 | 1067 ft | 78 kts | 134° |
| 2026-05-07 15:12 | 14.56372 | 120.96214 | 1095 ft | 80 kts | 140° |
| 2026-05-07 15:12 | 14.55940 | 120.96556 | 1112 ft | 76 kts | 129° |
| 2026-05-07 15:13 | 14.55567 | 120.96905 | 1123 ft | 69 kts | 132° |
| 2026-05-07 15:13 | 14.55209 | 120.97247 | 1057 ft | 70 kts | 129° |
| 2026-05-07 15:13 | 14.54886 | 120.97632 | 968 ft | 72 kts | 121° |
| 2026-05-07 15:13 | 14.54563 | 120.98041 | 862 ft | 76 kts | 127° |
| 2026-05-07 15:14 | 14.54205 | 120.98439 | 730 ft | 77 kts | 130° |
| 2026-05-07 15:14 | 14.53847 | 120.98821 | 626 ft | 68 kts | 125° |
| 2026-05-07 15:14 | 14.53537 | 120.99171 | 498 ft | 65 kts | 133° |
| 2026-05-07 15:14 | 14.53220 | 120.99493 | 406 ft | 64 kts | 130° |
| 2026-05-07 15:15 | 14.52909 | 120.99837 | 309 ft | 65 kts | 130° |
| 2026-05-07 15:15 | 14.52588 | 121.00163 | 221 ft | 65 kts | 129° |
| 2026-05-07 15:15 | 14.52263 | 121.00508 | 123 ft | 69 kts | 130° |
| 2026-05-07 15:15 | 14.51957 | 121.00816 | 78 ft | 47 kts | 135° |
| 2026-05-07 15:16 | 14.51854 | 121.00933 | 77 ft | 6 kts | 124° |
| 2026-05-07 15:16 | 14.51855 | 121.00983 | 77 ft | 9 kts | 60° |
| 2026-05-07 15:16 | 14.51910 | 121.01011 | 77 ft | 10 kts | 330° |
| 2026-05-07 15:16 | 14.51966 | 121.00957 | 77 ft | 11 kts | 318° |
| 2026-05-07 15:17 | 14.52026 | 121.00893 | 77 ft | 12 kts | 315° |
| 2026-05-07 15:17 | 14.52092 | 121.00826 | 77 ft | 13 kts | 315° |
| 2026-05-07 15:17 | 14.52153 | 121.00761 | 77 ft | 12 kts | 300° |
| 2026-05-07 15:17 | 14.52132 | 121.00683 | 77 ft | 12 kts | 238° |
| 2026-05-07 15:18 | 14.52065 | 121.00627 | 77 ft | 13 kts | 192° |
| 2026-05-07 15:18 | 14.51973 | 121.00612 | 77 ft | 14 kts | 190° |
| 2026-05-07 15:18 | 14.51877 | 121.00595 | 77 ft | 11 kts | 178° |
| 2026-05-07 15:18 | 14.51828 | 121.00562 | 77 ft | 10 kts | 248° |
| 2026-05-07 15:19 | 14.51806 | 121.00509 | 77 ft | 7 kts | 235° |
| 2026-05-07 15:19 | 14.51773 | 121.00505 | 77 ft | 2 kts | 109° |
| 2026-05-07 15:19 | 14.51773 | 121.00510 | 77 ft | 0 kts | 65° |